Headrick, Oklahoma
Current Conditions -  °F | °C
As of 7:38 AM on Sunday 21 Dec 2014 (Local Time) from KLTS Reporting Station
Overcast Overcast  
Wind Chill: 37°   Ceiling: 500
Heat Index: 43°   Visibility: 10mi
Dew Point: 43°   Wind: 10mph
Humidity: 100%   Direction: 140°SE
Pressure: 29.98"   Gusts: NA
Location:  34.63°N, 99.14°W
Report Text: KLTS 211338Z AUTO 14009KT 10SM OVC005 06/06 A2998 RMK AO2
Loading
Personal Weather Stations






























Interactive Weather Map New forecast layout! Learn more

10-Day Weather Forecast

Advertisements
Track Severe Weather on mobile